sensor_id;sensor_type;location;lat;lon;timestamp;temperature;humidity
26964;DHT22;14521;48.148;-1.656;2022-10-22T00:01:22;21.40;99.90
26964;DHT22;14521;48.148;-1.656;2022-10-22T00:04:47;21.40;99.90
26964;DHT22;14521;48.148;-1.656;2022-10-22T00:08:09;21.40;99.90
26964;DHT22;14521;48.148;-1.656;2022-10-22T00:11:31;21.40;99.90
26964;DHT22;14521;48.148;-1.656;2022-10-22T00:14:53;21.40;99.90
26964;DHT22;14521;48.148;-1.656;2022-10-22T00:18:15;21.40;99.90
26964;DHT22;14521;48.148;-1.656;2022-10-22T00:21:38;21.40;99.90
26964;DHT22;14521;48.148;-1.656;2022-10-22T00:25:00;21.50;99.90
26964;DHT22;14521;48.148;-1.656;2022-10-22T00:28:22;21.40;99.90
26964;DHT22;14521;48.148;-1.656;2022-10-22T00:31:45;21.40;99.90
26964;DHT22;14521;48.148;-1.656;2022-10-22T00:35:10;21.40;99.90
26964;DHT22;14521;48.148;-1.656;2022-10-22T00:38:33;21.40;99.90
26964;DHT22;14521;48.148;-1.656;2022-10-22T00:41:56;21.40;99.90
26964;DHT22;14521;48.148;-1.656;2022-10-22T00:45:24;21.40;99.90
26964;DHT22;14521;48.148;-1.656;2022-10-22T00:48:47;21.40;99.90
26964;DHT22;14521;48.148;-1.656;2022-10-22T00:52:09;21.40;99.90
26964;DHT22;14521;48.148;-1.656;2022-10-22T00:55:33;21.40;99.90
26964;DHT22;14521;48.148;-1.656;2022-10-22T00:58:58;21.40;99.90
26964;DHT22;14521;48.148;-1.656;2022-10-22T01:02:21;21.40;99.90
26964;DHT22;14521;48.148;-1.656;2022-10-22T01:06:02;21.40;99.90
26964;DHT22;14521;48.148;-1.656;2022-10-22T01:09:41;21.40;99.90
26964;DHT22;14521;48.148;-1.656;2022-10-22T01:13:18;21.40;99.90
26964;DHT22;14521;48.148;-1.656;2022-10-22T01:17:29;21.40;99.90
26964;DHT22;14521;48.148;-1.656;2022-10-22T01:21:02;21.40;99.90
26964;DHT22;14521;48.148;-1.656;2022-10-22T01:28:06;21.30;99.90
26964;DHT22;14521;48.148;-1.656;2022-10-22T01:31:41;21.40;99.90
26964;DHT22;14521;48.148;-1.656;2022-10-22T01:35:08;21.30;99.90
26964;DHT22;14521;48.148;-1.656;2022-10-22T01:38:33;21.40;99.90
26964;DHT22;14521;48.148;-1.656;2022-10-22T01:41:56;21.40;99.90
26964;DHT22;14521;48.148;-1.656;2022-10-22T01:45:21;21.40;99.90
26964;DHT22;14521;48.148;-1.656;2022-10-22T02:00:23;21.40;99.90
26964;DHT22;14521;48.148;-1.656;2022-10-22T02:03:54;21.30;99.90
26964;DHT22;14521;48.148;-1.656;2022-10-22T02:07:20;21.30;99.90
26964;DHT22;14521;48.148;-1.656;2022-10-22T02:10:45;21.40;99.90
26964;DHT22;14521;48.148;-1.656;2022-10-22T02:14:10;21.30;99.90
26964;DHT22;14521;48.148;-1.656;2022-10-22T02:17:34;21.30;99.90
26964;DHT22;14521;48.148;-1.656;2022-10-22T02:20:58;21.30;99.90
26964;DHT22;14521;48.148;-1.656;2022-10-22T02:24:21;21.30;99.90
26964;DHT22;14521;48.148;-1.656;2022-10-22T02:27:48;21.30;99.90
26964;DHT22;14521;48.148;-1.656;2022-10-22T02:31:25;21.30;99.90
26964;DHT22;14521;48.148;-1.656;2022-10-22T02:34:49;21.30;99.90
26964;DHT22;14521;48.148;-1.656;2022-10-22T02:38:12;21.30;99.90
26964;DHT22;14521;48.148;-1.656;2022-10-22T02:41:36;21.30;99.90
26964;DHT22;14521;48.148;-1.656;2022-10-22T02:44:58;21.30;99.90
26964;DHT22;14521;48.148;-1.656;2022-10-22T02:48:20;21.30;99.90
26964;DHT22;14521;48.148;-1.656;2022-10-22T02:51:43;21.30;99.90
26964;DHT22;14521;48.148;-1.656;2022-10-22T02:55:05;21.30;99.90
26964;DHT22;14521;48.148;-1.656;2022-10-22T02:58:27;21.30;99.90
26964;DHT22;14521;48.148;-1.656;2022-10-22T03:01:50;21.30;99.90
26964;DHT22;14521;48.148;-1.656;2022-10-22T03:05:12;21.30;99.90
26964;DHT22;14521;48.148;-1.656;2022-10-22T03:08:34;21.30;99.90
26964;DHT22;14521;48.148;-1.656;2022-10-22T03:11:57;21.30;99.90
26964;DHT22;14521;48.148;-1.656;2022-10-22T03:15:19;21.30;99.90
26964;DHT22;14521;48.148;-1.656;2022-10-22T03:18:41;21.30;99.90
26964;DHT22;14521;48.148;-1.656;2022-10-22T03:22:06;21.30;99.90
26964;DHT22;14521;48.148;-1.656;2022-10-22T03:25:31;21.30;99.90
26964;DHT22;14521;48.148;-1.656;2022-10-22T03:28:55;21.20;99.90
26964;DHT22;14521;48.148;-1.656;2022-10-22T03:32:18;21.30;99.90
26964;DHT22;14521;48.148;-1.656;2022-10-22T03:35:43;21.20;99.90
26964;DHT22;14521;48.148;-1.656;2022-10-22T03:39:06;21.20;99.90
26964;DHT22;14521;48.148;-1.656;2022-10-22T03:42:29;21.30;99.90
26964;DHT22;14521;48.148;-1.656;2022-10-22T03:45:51;21.20;99.90
26964;DHT22;14521;48.148;-1.656;2022-10-22T03:49:13;21.20;99.90
26964;DHT22;14521;48.148;-1.656;2022-10-22T03:52:39;21.20;99.90
26964;DHT22;14521;48.148;-1.656;2022-10-22T03:56:01;21.20;99.90
26964;DHT22;14521;48.148;-1.656;2022-10-22T03:59:24;21.20;99.90
26964;DHT22;14521;48.148;-1.656;2022-10-22T04:02:46;21.30;99.90
26964;DHT22;14521;48.148;-1.656;2022-10-22T04:06:11;21.20;99.90
26964;DHT22;14521;48.148;-1.656;2022-10-22T04:09:33;21.20;99.90
26964;DHT22;14521;48.148;-1.656;2022-10-22T04:12:56;21.20;99.90
26964;DHT22;14521;48.148;-1.656;2022-10-22T04:16:20;21.20;99.90
26964;DHT22;14521;48.148;-1.656;2022-10-22T04:19:43;21.20;99.90
26964;DHT22;14521;48.148;-1.656;2022-10-22T04:23:05;21.20;99.90
26964;DHT22;14521;48.148;-1.656;2022-10-22T04:26:27;21.20;99.90
26964;DHT22;14521;48.148;-1.656;2022-10-22T04:29:49;21.20;99.90
26964;DHT22;14521;48.148;-1.656;2022-10-22T04:33:11;21.20;99.90
26964;DHT22;14521;48.148;-1.656;2022-10-22T04:36:33;21.20;99.90
26964;DHT22;14521;48.148;-1.656;2022-10-22T04:39:56;21.20;99.90
26964;DHT22;14521;48.148;-1.656;2022-10-22T04:43:19;21.20;99.90
26964;DHT22;14521;48.148;-1.656;2022-10-22T04:46:41;21.20;99.90
26964;DHT22;14521;48.148;-1.656;2022-10-22T04:50:04;21.20;99.90
26964;DHT22;14521;48.148;-1.656;2022-10-22T04:53:26;21.20;99.90
26964;DHT22;14521;48.148;-1.656;2022-10-22T04:56:49;21.20;99.90
26964;DHT22;14521;48.148;-1.656;2022-10-22T05:00:11;21.20;99.90
26964;DHT22;14521;48.148;-1.656;2022-10-22T05:03:33;21.20;99.90
26964;DHT22;14521;48.148;-1.656;2022-10-22T05:06:55;21.20;99.90
26964;DHT22;14521;48.148;-1.656;2022-10-22T05:10:18;21.20;99.90
26964;DHT22;14521;48.148;-1.656;2022-10-22T05:13:40;21.20;99.90
26964;DHT22;14521;48.148;-1.656;2022-10-22T05:17:02;21.20;99.90
26964;DHT22;14521;48.148;-1.656;2022-10-22T05:20:24;21.10;99.90
26964;DHT22;14521;48.148;-1.656;2022-10-22T05:23:48;21.20;99.90
26964;DHT22;14521;48.148;-1.656;2022-10-22T05:27:11;21.20;99.90
26964;DHT22;14521;48.148;-1.656;2022-10-22T05:30:33;21.20;99.90
26964;DHT22;14521;48.148;-1.656;2022-10-22T05:33:55;21.20;99.90
26964;DHT22;14521;48.148;-1.656;2022-10-22T05:37:17;21.10;99.90
26964;DHT22;14521;48.148;-1.656;2022-10-22T05:40:40;21.10;99.90
26964;DHT22;14521;48.148;-1.656;2022-10-22T05:44:03;21.10;99.90
26964;DHT22;14521;48.148;-1.656;2022-10-22T05:47:25;21.20;99.90
26964;DHT22;14521;48.148;-1.656;2022-10-22T05:50:49;21.20;99.90
26964;DHT22;14521;48.148;-1.656;2022-10-22T05:54:17;21.20;99.90
26964;DHT22;14521;48.148;-1.656;2022-10-22T05:57:40;21.10;99.90
26964;DHT22;14521;48.148;-1.656;2022-10-22T06:01:05;21.20;99.90
26964;DHT22;14521;48.148;-1.656;2022-10-22T06:04:27;21.20;99.90
26964;DHT22;14521;48.148;-1.656;2022-10-22T06:07:49;21.30;99.90
26964;DHT22;14521;48.148;-1.656;2022-10-22T06:11:11;21.30;99.90
26964;DHT22;14521;48.148;-1.656;2022-10-22T06:14:34;21.30;99.90
26964;DHT22;14521;48.148;-1.656;2022-10-22T06:17:56;21.30;99.90
26964;DHT22;14521;48.148;-1.656;2022-10-22T06:21:18;21.30;99.90
26964;DHT22;14521;48.148;-1.656;2022-10-22T06:24:40;21.30;99.90
26964;DHT22;14521;48.148;-1.656;2022-10-22T06:28:06;21.30;99.90
26964;DHT22;14521;48.148;-1.656;2022-10-22T06:31:28;21.30;99.90
26964;DHT22;14521;48.148;-1.656;2022-10-22T06:34:57;21.30;99.90
26964;DHT22;14521;48.148;-1.656;2022-10-22T06:38:19;21.30;99.90
26964;DHT22;14521;48.148;-1.656;2022-10-22T06:41:41;21.30;99.90
26964;DHT22;14521;48.148;-1.656;2022-10-22T06:45:04;21.30;99.90
26964;DHT22;14521;48.148;-1.656;2022-10-22T06:48:27;21.30;99.90
26964;DHT22;14521;48.148;-1.656;2022-10-22T06:51:51;21.30;99.90
26964;DHT22;14521;48.148;-1.656;2022-10-22T06:55:14;21.30;99.90
26964;DHT22;14521;48.148;-1.656;2022-10-22T06:58:36;21.30;99.90
26964;DHT22;14521;48.148;-1.656;2022-10-22T07:01:58;21.30;99.90
26964;DHT22;14521;48.148;-1.656;2022-10-22T07:05:20;21.30;99.90
26964;DHT22;14521;48.148;-1.656;2022-10-22T07:08:43;21.30;99.90
26964;DHT22;14521;48.148;-1.656;2022-10-22T07:12:05;21.20;99.90
26964;DHT22;14521;48.148;-1.656;2022-10-22T07:15:27;21.20;99.90
26964;DHT22;14521;48.148;-1.656;2022-10-22T07:18:50;21.20;99.90
26964;DHT22;14521;48.148;-1.656;2022-10-22T07:22:12;21.20;99.90
26964;DHT22;14521;48.148;-1.656;2022-10-22T07:25:34;21.20;99.90
26964;DHT22;14521;48.148;-1.656;2022-10-22T07:28:56;21.20;99.90
26964;DHT22;14521;48.148;-1.656;2022-10-22T07:32:19;21.30;99.90
26964;DHT22;14521;48.148;-1.656;2022-10-22T07:35:44;21.30;99.90
26964;DHT22;14521;48.148;-1.656;2022-10-22T07:39:07;21.30;99.90
26964;DHT22;14521;48.148;-1.656;2022-10-22T07:42:29;21.20;99.90
26964;DHT22;14521;48.148;-1.656;2022-10-22T07:45:52;21.20;99.90
26964;DHT22;14521;48.148;-1.656;2022-10-22T07:49:16;21.20;99.90
26964;DHT22;14521;48.148;-1.656;2022-10-22T07:52:38;21.20;99.90
26964;DHT22;14521;48.148;-1.656;2022-10-22T07:56:01;21.20;99.90
26964;DHT22;14521;48.148;-1.656;2022-10-22T07:59:23;21.20;99.90
26964;DHT22;14521;48.148;-1.656;2022-10-22T08:02:48;21.10;99.90
26964;DHT22;14521;48.148;-1.656;2022-10-22T08:06:12;21.10;99.90
26964;DHT22;14521;48.148;-1.656;2022-10-22T08:09:34;21.10;99.90
26964;DHT22;14521;48.148;-1.656;2022-10-22T08:12:57;21.10;99.90
26964;DHT22;14521;48.148;-1.656;2022-10-22T08:16:19;21.10;99.90
26964;DHT22;14521;48.148;-1.656;2022-10-22T08:19:41;21.10;99.90
26964;DHT22;14521;48.148;-1.656;2022-10-22T08:23:04;21.10;99.90
26964;DHT22;14521;48.148;-1.656;2022-10-22T08:26:26;21.10;99.90
26964;DHT22;14521;48.148;-1.656;2022-10-22T08:29:48;21.10;99.90
26964;DHT22;14521;48.148;-1.656;2022-10-22T08:33:10;21.10;99.90
26964;DHT22;14521;48.148;-1.656;2022-10-22T08:36:33;21.10;99.90
26964;DHT22;14521;48.148;-1.656;2022-10-22T08:39:55;21.10;99.90
26964;DHT22;14521;48.148;-1.656;2022-10-22T08:43:39;21.20;99.90
26964;DHT22;14521;48.148;-1.656;2022-10-22T08:47:14;21.20;99.90
26964;DHT22;14521;48.148;-1.656;2022-10-22T08:50:48;21.20;99.90
26964;DHT22;14521;48.148;-1.656;2022-10-22T08:58:02;21.30;99.90
26964;DHT22;14521;48.148;-1.656;2022-10-22T09:01:47;22.50;98.40
26964;DHT22;14521;48.148;-1.656;2022-10-22T09:09:00;21.60;99.90
26964;DHT22;14521;48.148;-1.656;2022-10-22T09:12:23;21.50;99.90
26964;DHT22;14521;48.148;-1.656;2022-10-22T09:15:57;21.40;99.90
26964;DHT22;14521;48.148;-1.656;2022-10-22T09:27:20;21.30;99.90
26964;DHT22;14521;48.148;-1.656;2022-10-22T09:30:42;21.20;99.90
26964;DHT22;14521;48.148;-1.656;2022-10-22T09:34:04;21.20;99.90
26964;DHT22;14521;48.148;-1.656;2022-10-22T09:37:29;21.20;99.90
26964;DHT22;14521;48.148;-1.656;2022-10-22T09:40:54;21.20;99.90
26964;DHT22;14521;48.148;-1.656;2022-10-22T09:44:18;21.30;99.90
26964;DHT22;14521;48.148;-1.656;2022-10-22T09:47:40;21.30;99.90
26964;DHT22;14521;48.148;-1.656;2022-10-22T09:51:26;21.30;99.90
26964;DHT22;14521;48.148;-1.656;2022-10-22T09:55:01;21.30;99.90
26964;DHT22;14521;48.148;-1.656;2022-10-22T09:58:24;21.30;99.90
26964;DHT22;14521;48.148;-1.656;2022-10-22T10:01:46;21.30;99.90
26964;DHT22;14521;48.148;-1.656;2022-10-22T10:05:23;21.30;99.90
26964;DHT22;14521;48.148;-1.656;2022-10-22T10:08:46;21.40;99.90
26964;DHT22;14521;48.148;-1.656;2022-10-22T10:16:11;21.40;99.90
26964;DHT22;14521;48.148;-1.656;2022-10-22T10:19:45;21.40;99.90
26964;DHT22;14521;48.148;-1.656;2022-10-22T10:26:57;21.40;99.90
26964;DHT22;14521;48.148;-1.656;2022-10-22T10:30:22;21.40;99.90
26964;DHT22;14521;48.148;-1.656;2022-10-22T10:37:45;21.40;99.90
26964;DHT22;14521;48.148;-1.656;2022-10-22T10:41:24;21.40;99.90
26964;DHT22;14521;48.148;-1.656;2022-10-22T10:52:35;21.40;99.90
26964;DHT22;14521;48.148;-1.656;2022-10-22T10:56:08;21.40;99.90
26964;DHT22;14521;48.148;-1.656;2022-10-22T11:06:42;21.40;99.90
26964;DHT22;14521;48.148;-1.656;2022-10-22T11:10:22;21.40;99.90
26964;DHT22;14521;48.148;-1.656;2022-10-22T11:13:52;21.40;99.90
26964;DHT22;14521;48.148;-1.656;2022-10-22T11:17:17;21.40;99.90
26964;DHT22;14521;48.148;-1.656;2022-10-22T11:24:18;21.40;99.90
26964;DHT22;14521;48.148;-1.656;2022-10-22T11:27:46;21.40;99.90
26964;DHT22;14521;48.148;-1.656;2022-10-22T11:31:14;21.40;99.90
26964;DHT22;14521;48.148;-1.656;2022-10-22T11:34:52;21.50;99.90
26964;DHT22;14521;48.148;-1.656;2022-10-22T11:38:19;21.50;99.90
26964;DHT22;14521;48.148;-1.656;2022-10-22T11:41:44;21.50;99.90
26964;DHT22;14521;48.148;-1.656;2022-10-22T11:45:28;21.50;99.90
26964;DHT22;14521;48.148;-1.656;2022-10-22T11:56:03;21.50;99.90
26964;DHT22;14521;48.148;-1.656;2022-10-22T12:06:58;21.60;99.90
26964;DHT22;14521;48.148;-1.656;2022-10-22T12:10:25;21.60;99.90
26964;DHT22;14521;48.148;-1.656;2022-10-22T12:17:22;21.50;99.90
26964;DHT22;14521;48.148;-1.656;2022-10-22T12:20:50;21.60;99.90
26964;DHT22;14521;48.148;-1.656;2022-10-22T12:24:16;21.50;99.90
26964;DHT22;14521;48.148;-1.656;2022-10-22T12:27:40;21.50;99.90
26964;DHT22;14521;48.148;-1.656;2022-10-22T12:31:03;21.60;99.90
26964;DHT22;14521;48.148;-1.656;2022-10-22T12:34:26;21.50;99.90
26964;DHT22;14521;48.148;-1.656;2022-10-22T12:37:51;21.50;99.90
26964;DHT22;14521;48.148;-1.656;2022-10-22T12:41:13;21.50;99.90
26964;DHT22;14521;48.148;-1.656;2022-10-22T12:44:36;21.50;99.90
26964;DHT22;14521;48.148;-1.656;2022-10-22T12:48:04;21.50;99.90
26964;DHT22;14521;48.148;-1.656;2022-10-22T12:51:27;21.50;99.90
26964;DHT22;14521;48.148;-1.656;2022-10-22T12:54:51;21.50;99.90
26964;DHT22;14521;48.148;-1.656;2022-10-22T12:58:21;21.50;99.90
26964;DHT22;14521;48.148;-1.656;2022-10-22T13:01:44;21.50;99.90
26964;DHT22;14521;48.148;-1.656;2022-10-22T13:08:40;21.50;99.90
26964;DHT22;14521;48.148;-1.656;2022-10-22T13:12:04;21.50;99.90
26964;DHT22;14521;48.148;-1.656;2022-10-22T13:18:50;21.50;99.90
26964;DHT22;14521;48.148;-1.656;2022-10-22T13:22:32;21.50;99.90
26964;DHT22;14521;48.148;-1.656;2022-10-22T13:26:13;21.50;99.90
26964;DHT22;14521;48.148;-1.656;2022-10-22T13:29:35;21.50;99.90
26964;DHT22;14521;48.148;-1.656;2022-10-22T13:33:35;21.50;99.90
26964;DHT22;14521;48.148;-1.656;2022-10-22T13:36:58;21.50;99.90
26964;DHT22;14521;48.148;-1.656;2022-10-22T13:40:20;21.50;99.90
26964;DHT22;14521;48.148;-1.656;2022-10-22T13:43:42;21.50;99.90
26964;DHT22;14521;48.148;-1.656;2022-10-22T13:47:23;21.50;99.90
26964;DHT22;14521;48.148;-1.656;2022-10-22T13:50:45;21.50;99.90
26964;DHT22;14521;48.148;-1.656;2022-10-22T13:54:25;21.50;99.90
26964;DHT22;14521;48.148;-1.656;2022-10-22T13:57:48;21.50;99.90
26964;DHT22;14521;48.148;-1.656;2022-10-22T14:04:43;21.50;99.90
26964;DHT22;14521;48.148;-1.656;2022-10-22T14:08:13;21.50;99.90
26964;DHT22;14521;48.148;-1.656;2022-10-22T14:11:36;21.50;99.90
26964;DHT22;14521;48.148;-1.656;2022-10-22T14:14:58;21.50;99.90
26964;DHT22;14521;48.148;-1.656;2022-10-22T14:18:25;21.50;99.90
26964;DHT22;14521;48.148;-1.656;2022-10-22T14:21:49;21.50;99.90
26964;DHT22;14521;48.148;-1.656;2022-10-22T14:25:18;21.50;99.90
26964;DHT22;14521;48.148;-1.656;2022-10-22T14:28:40;21.50;99.90
26964;DHT22;14521;48.148;-1.656;2022-10-22T14:32:22;21.50;99.90
26964;DHT22;14521;48.148;-1.656;2022-10-22T14:35:46;21.50;99.90
26964;DHT22;14521;48.148;-1.656;2022-10-22T14:39:09;21.50;99.90
26964;DHT22;14521;48.148;-1.656;2022-10-22T14:42:36;21.50;99.90
26964;DHT22;14521;48.148;-1.656;2022-10-22T14:46:01;21.50;99.90
26964;DHT22;14521;48.148;-1.656;2022-10-22T14:49:23;21.50;99.90
26964;DHT22;14521;48.148;-1.656;2022-10-22T14:52:45;21.50;99.90
26964;DHT22;14521;48.148;-1.656;2022-10-22T14:56:12;21.40;99.90
26964;DHT22;14521;48.148;-1.656;2022-10-22T14:59:35;21.40;99.90
26964;DHT22;14521;48.148;-1.656;2022-10-22T15:02:57;21.50;99.90
26964;DHT22;14521;48.148;-1.656;2022-10-22T15:06:25;21.40;99.90
26964;DHT22;14521;48.148;-1.656;2022-10-22T15:09:47;21.50;99.90
26964;DHT22;14521;48.148;-1.656;2022-10-22T15:13:09;21.40;99.90
26964;DHT22;14521;48.148;-1.656;2022-10-22T15:16:31;21.40;99.90
26964;DHT22;14521;48.148;-1.656;2022-10-22T15:19:54;21.40;99.90
26964;DHT22;14521;48.148;-1.656;2022-10-22T15:23:17;21.40;99.90
26964;DHT22;14521;48.148;-1.656;2022-10-22T15:26:39;21.40;99.90
26964;DHT22;14521;48.148;-1.656;2022-10-22T15:30:01;21.50;99.90
26964;DHT22;14521;48.148;-1.656;2022-10-22T15:33:28;21.40;99.90
26964;DHT22;14521;48.148;-1.656;2022-10-22T15:36:54;21.40;99.90
26964;DHT22;14521;48.148;-1.656;2022-10-22T15:40:16;21.40;99.90
26964;DHT22;14521;48.148;-1.656;2022-10-22T15:43:39;21.40;99.90
26964;DHT22;14521;48.148;-1.656;2022-10-22T15:47:04;21.40;99.90
26964;DHT22;14521;48.148;-1.656;2022-10-22T15:50:28;21.40;99.90
26964;DHT22;14521;48.148;-1.656;2022-10-22T15:53:51;21.40;99.90
26964;DHT22;14521;48.148;-1.656;2022-10-22T15:57:14;21.40;99.90
26964;DHT22;14521;48.148;-1.656;2022-10-22T16:00:36;21.40;99.90
26964;DHT22;14521;48.148;-1.656;2022-10-22T16:03:59;21.40;99.90
26964;DHT22;14521;48.148;-1.656;2022-10-22T16:07:24;21.40;99.90
26964;DHT22;14521;48.148;-1.656;2022-10-22T16:10:46;21.40;99.90
26964;DHT22;14521;48.148;-1.656;2022-10-22T16:14:11;21.40;99.90
26964;DHT22;14521;48.148;-1.656;2022-10-22T16:17:33;21.40;99.90
26964;DHT22;14521;48.148;-1.656;2022-10-22T16:20:55;21.40;99.90
26964;DHT22;14521;48.148;-1.656;2022-10-22T16:24:18;21.30;99.90
26964;DHT22;14521;48.148;-1.656;2022-10-22T16:27:40;21.30;99.90
26964;DHT22;14521;48.148;-1.656;2022-10-22T16:31:05;21.30;99.90
26964;DHT22;14521;48.148;-1.656;2022-10-22T16:34:27;21.30;99.90
26964;DHT22;14521;48.148;-1.656;2022-10-22T16:37:49;21.40;99.90
26964;DHT22;14521;48.148;-1.656;2022-10-22T16:41:17;21.40;99.90
26964;DHT22;14521;48.148;-1.656;2022-10-22T16:44:40;21.40;99.90
26964;DHT22;14521;48.148;-1.656;2022-10-22T16:48:02;21.40;99.90
26964;DHT22;14521;48.148;-1.656;2022-10-22T16:51:26;21.40;99.90
26964;DHT22;14521;48.148;-1.656;2022-10-22T16:54:49;21.40;99.90
26964;DHT22;14521;48.148;-1.656;2022-10-22T16:58:11;21.40;99.90
26964;DHT22;14521;48.148;-1.656;2022-10-22T17:01:33;21.50;99.90
26964;DHT22;14521;48.148;-1.656;2022-10-22T17:05:01;21.50;99.90
26964;DHT22;14521;48.148;-1.656;2022-10-22T17:08:23;21.50;99.90
26964;DHT22;14521;48.148;-1.656;2022-10-22T17:11:46;21.50;99.90
26964;DHT22;14521;48.148;-1.656;2022-10-22T17:15:08;21.50;99.90
26964;DHT22;14521;48.148;-1.656;2022-10-22T17:18:31;21.50;99.90
26964;DHT22;14521;48.148;-1.656;2022-10-22T17:21:53;21.50;99.90
26964;DHT22;14521;48.148;-1.656;2022-10-22T17:25:18;21.60;99.90
26964;DHT22;14521;48.148;-1.656;2022-10-22T17:28:43;21.60;99.90
26964;DHT22;14521;48.148;-1.656;2022-10-22T17:32:05;21.60;99.90
26964;DHT22;14521;48.148;-1.656;2022-10-22T17:35:27;21.60;99.90
26964;DHT22;14521;48.148;-1.656;2022-10-22T17:38:55;21.60;99.90
26964;DHT22;14521;48.148;-1.656;2022-10-22T17:42:17;21.60;99.90
26964;DHT22;14521;48.148;-1.656;2022-10-22T17:45:39;21.70;99.90
26964;DHT22;14521;48.148;-1.656;2022-10-22T17:49:04;21.60;99.90
26964;DHT22;14521;48.148;-1.656;2022-10-22T17:52:27;21.70;99.90
26964;DHT22;14521;48.148;-1.656;2022-10-22T17:55:56;21.70;99.90
26964;DHT22;14521;48.148;-1.656;2022-10-22T17:59:19;21.70;99.90
26964;DHT22;14521;48.148;-1.656;2022-10-22T18:02:41;21.60;99.90
26964;DHT22;14521;48.148;-1.656;2022-10-22T18:06:05;21.60;99.90
26964;DHT22;14521;48.148;-1.656;2022-10-22T18:09:28;21.70;99.90
26964;DHT22;14521;48.148;-1.656;2022-10-22T18:12:50;21.70;99.90
26964;DHT22;14521;48.148;-1.656;2022-10-22T18:16:12;21.70;99.90
26964;DHT22;14521;48.148;-1.656;2022-10-22T18:19:34;21.70;99.90
26964;DHT22;14521;48.148;-1.656;2022-10-22T18:22:57;21.60;99.90
26964;DHT22;14521;48.148;-1.656;2022-10-22T18:26:19;21.70;99.90
26964;DHT22;14521;48.148;-1.656;2022-10-22T18:29:50;21.70;99.90
26964;DHT22;14521;48.148;-1.656;2022-10-22T18:33:13;21.70;99.90
26964;DHT22;14521;48.148;-1.656;2022-10-22T18:36:36;21.70;99.90
26964;DHT22;14521;48.148;-1.656;2022-10-22T18:39:59;21.70;99.90
26964;DHT22;14521;48.148;-1.656;2022-10-22T18:43:21;21.70;99.90
26964;DHT22;14521;48.148;-1.656;2022-10-22T18:46:43;21.70;99.90
26964;DHT22;14521;48.148;-1.656;2022-10-22T18:50:06;21.70;99.90
26964;DHT22;14521;48.148;-1.656;2022-10-22T18:53:29;21.60;99.90
26964;DHT22;14521;48.148;-1.656;2022-10-22T18:56:52;21.70;99.90
26964;DHT22;14521;48.148;-1.656;2022-10-22T19:00:17;21.70;99.90
26964;DHT22;14521;48.148;-1.656;2022-10-22T19:03:39;21.70;99.90
26964;DHT22;14521;48.148;-1.656;2022-10-22T19:07:03;21.70;99.90
26964;DHT22;14521;48.148;-1.656;2022-10-22T19:10:26;21.70;99.90
26964;DHT22;14521;48.148;-1.656;2022-10-22T19:13:48;21.60;99.90
26964;DHT22;14521;48.148;-1.656;2022-10-22T19:17:11;21.70;99.90
26964;DHT22;14521;48.148;-1.656;2022-10-22T19:20:34;21.70;99.90
26964;DHT22;14521;48.148;-1.656;2022-10-22T19:23:58;21.70;99.90
26964;DHT22;14521;48.148;-1.656;2022-10-22T19:27:20;21.70;99.90
26964;DHT22;14521;48.148;-1.656;2022-10-22T19:30:43;21.70;99.90
26964;DHT22;14521;48.148;-1.656;2022-10-22T19:34:05;21.70;99.90
26964;DHT22;14521;48.148;-1.656;2022-10-22T19:37:27;21.60;99.90
26964;DHT22;14521;48.148;-1.656;2022-10-22T19:40:50;21.70;99.90
26964;DHT22;14521;48.148;-1.656;2022-10-22T19:44:12;21.70;99.90
26964;DHT22;14521;48.148;-1.656;2022-10-22T19:47:35;21.60;99.90
26964;DHT22;14521;48.148;-1.656;2022-10-22T19:51:02;21.60;99.90
26964;DHT22;14521;48.148;-1.656;2022-10-22T19:54:25;21.60;99.90
26964;DHT22;14521;48.148;-1.656;2022-10-22T19:57:47;21.60;99.90
26964;DHT22;14521;48.148;-1.656;2022-10-22T20:01:11;21.50;99.90
26964;DHT22;14521;48.148;-1.656;2022-10-22T20:04:35;21.50;99.90
26964;DHT22;14521;48.148;-1.656;2022-10-22T20:07:57;21.50;99.90
26964;DHT22;14521;48.148;-1.656;2022-10-22T20:11:22;21.50;99.90
26964;DHT22;14521;48.148;-1.656;2022-10-22T20:14:44;21.50;99.90
26964;DHT22;14521;48.148;-1.656;2022-10-22T20:18:07;21.50;99.90
26964;DHT22;14521;48.148;-1.656;2022-10-22T20:21:29;21.50;99.90
26964;DHT22;14521;48.148;-1.656;2022-10-22T20:24:51;21.50;99.90
26964;DHT22;14521;48.148;-1.656;2022-10-22T20:28:14;21.50;99.90
26964;DHT22;14521;48.148;-1.656;2022-10-22T20:31:36;21.50;99.90
26964;DHT22;14521;48.148;-1.656;2022-10-22T20:34:58;21.50;99.90
26964;DHT22;14521;48.148;-1.656;2022-10-22T20:38:20;21.50;99.90
26964;DHT22;14521;48.148;-1.656;2022-10-22T20:41:43;21.50;99.90
26964;DHT22;14521;48.148;-1.656;2022-10-22T20:45:05;21.50;99.90
26964;DHT22;14521;48.148;-1.656;2022-10-22T20:48:28;21.50;99.90
26964;DHT22;14521;48.148;-1.656;2022-10-22T20:51:52;21.50;99.90
26964;DHT22;14521;48.148;-1.656;2022-10-22T20:55:14;21.50;99.90
26964;DHT22;14521;48.148;-1.656;2022-10-22T20:58:41;21.40;99.90
26964;DHT22;14521;48.148;-1.656;2022-10-22T21:02:09;21.40;99.90
26964;DHT22;14521;48.148;-1.656;2022-10-22T21:05:32;21.40;99.90
26964;DHT22;14521;48.148;-1.656;2022-10-22T21:08:55;21.40;99.90
26964;DHT22;14521;48.148;-1.656;2022-10-22T21:12:17;21.40;99.90
26964;DHT22;14521;48.148;-1.656;2022-10-22T21:15:40;21.40;99.90
26964;DHT22;14521;48.148;-1.656;2022-10-22T21:19:03;21.40;99.90
26964;DHT22;14521;48.148;-1.656;2022-10-22T21:22:25;21.40;99.90
26964;DHT22;14521;48.148;-1.656;2022-10-22T21:25:54;21.40;99.90
26964;DHT22;14521;48.148;-1.656;2022-10-22T21:29:18;21.40;99.90
26964;DHT22;14521;48.148;-1.656;2022-10-22T21:32:40;21.40;99.90
26964;DHT22;14521;48.148;-1.656;2022-10-22T21:36:05;21.40;99.90
26964;DHT22;14521;48.148;-1.656;2022-10-22T21:39:27;21.40;99.90
26964;DHT22;14521;48.148;-1.656;2022-10-22T21:42:49;21.30;99.90
26964;DHT22;14521;48.148;-1.656;2022-10-22T21:46:23;21.40;99.90
26964;DHT22;14521;48.148;-1.656;2022-10-22T21:49:45;21.40;99.90
26964;DHT22;14521;48.148;-1.656;2022-10-22T21:53:08;21.40;99.90
26964;DHT22;14521;48.148;-1.656;2022-10-22T21:56:35;21.30;99.90
26964;DHT22;14521;48.148;-1.656;2022-10-22T21:59:57;21.30;99.90
26964;DHT22;14521;48.148;-1.656;2022-10-22T22:03:19;21.40;99.90
26964;DHT22;14521;48.148;-1.656;2022-10-22T22:06:41;21.30;99.90
26964;DHT22;14521;48.148;-1.656;2022-10-22T22:10:04;21.40;99.90
26964;DHT22;14521;48.148;-1.656;2022-10-22T22:13:26;21.30;99.90
26964;DHT22;14521;48.148;-1.656;2022-10-22T22:16:48;21.30;99.90
26964;DHT22;14521;48.148;-1.656;2022-10-22T22:20:10;21.30;99.90
26964;DHT22;14521;48.148;-1.656;2022-10-22T22:23:38;21.30;99.90
26964;DHT22;14521;48.148;-1.656;2022-10-22T22:27:01;21.30;99.90
26964;DHT22;14521;48.148;-1.656;2022-10-22T22:30:23;21.30;99.90
26964;DHT22;14521;48.148;-1.656;2022-10-22T22:33:46;21.30;99.90
26964;DHT22;14521;48.148;-1.656;2022-10-22T22:37:08;21.30;99.90
26964;DHT22;14521;48.148;-1.656;2022-10-22T22:40:30;21.30;99.90